Leona, Kansas
Current Conditions -  °F | °C
As of 11:53 PM on Thursday 30 Oct 2014 (Local Time) from KFNB Reporting Station
Overcast Overcast  
Wind Chill: 50°   Ceiling: 5500
Heat Index: 50°   Visibility: 10mi
Dew Point: 41°   Wind: 18mph
Humidity: 71%   Direction: 350°N
Pressure: 30.27"   Gusts: 25mph
Location:  39.8103°N, 95.373°W
Report Text: KFNB 310453Z AUTO 35016G22KT 10SM FEW030 OVC055 10/05 A3027 RMK AO2 RAE29 SLP252 P0000 T01000050
Loading
Personal Weather Stations






























Interactive Weather Map
Tropical Storm Tracking
New forecast layout! Learn more

10-Day Weather Forecast

Advertisements
Track Severe Weather on mobile